createdAt,value
2018-12-31T00:00:13.097Z,8.90
2018-12-31T00:01:13.094Z,8.80
2018-12-31T00:02:13.085Z,8.00
2018-12-31T00:03:13.081Z,8.70
2018-12-31T00:04:13.076Z,8.60
2018-12-31T00:05:13.069Z,8.10
2018-12-31T00:06:13.063Z,7.90
2018-12-31T00:07:13.058Z,8.10
2018-12-31T00:08:13.053Z,7.20
2018-12-31T00:09:13.049Z,8.40
2018-12-31T00:10:13.044Z,7.40
2018-12-31T00:11:13.037Z,6.90
2018-12-31T00:12:13.035Z,7.90
2018-12-31T00:13:13.029Z,7.60
2018-12-31T00:14:13.020Z,7.20
2018-12-31T00:15:13.016Z,8.40
2018-12-31T00:16:13.011Z,7.10
2018-12-31T00:17:13.005Z,7.90
2018-12-31T00:18:12.999Z,7.70
2018-12-31T00:19:12.997Z,7.40
2018-12-31T00:20:12.988Z,7.60
2018-12-31T00:21:12.983Z,8.00
2018-12-31T00:22:12.978Z,7.60
2018-12-31T00:23:12.979Z,7.60
2018-12-31T00:24:12.971Z,7.40
2018-12-31T00:25:12.963Z,7.50
2018-12-31T00:26:12.963Z,8.60
2018-12-31T00:27:12.952Z,7.60
2018-12-31T00:28:12.946Z,8.30
2018-12-31T00:29:12.943Z,7.60
2018-12-31T00:30:12.937Z,8.30
2018-12-31T00:31:13.002Z,8.10
2018-12-31T00:32:12.928Z,7.80
2018-12-31T00:33:12.919Z,7.70
2018-12-31T00:34:12.915Z,8.10
2018-12-31T00:35:12.908Z,8.30
2018-12-31T00:36:12.904Z,7.60
2018-12-31T00:37:12.899Z,8.50
2018-12-31T00:38:12.893Z,8.30
2018-12-31T00:39:12.888Z,7.90
2018-12-31T00:40:12.881Z,8.00
2018-12-31T00:41:12.877Z,8.70
2018-12-31T00:42:12.871Z,8.40
2018-12-31T00:43:12.866Z,8.00
2018-12-31T00:44:12.861Z,7.60
2018-12-31T00:45:12.856Z,6.80
2018-12-31T00:46:12.849Z,7.90
2018-12-31T00:47:12.845Z,7.80
2018-12-31T00:48:12.838Z,8.40
2018-12-31T00:49:12.834Z,7.40
2018-12-31T00:50:12.827Z,7.40
2018-12-31T00:51:12.822Z,7.40
2018-12-31T00:52:12.817Z,8.50
2018-12-31T00:53:12.812Z,7.40
2018-12-31T00:54:12.805Z,8.20
2018-12-31T00:55:12.800Z,7.80
2018-12-31T00:56:12.796Z,7.10
2018-12-31T00:57:12.793Z,7.10
2018-12-31T00:58:12.786Z,7.40
2018-12-31T00:59:12.779Z,7.30
2018-12-31T01:00:12.778Z,7.60
2018-12-31T01:01:12.770Z,7.20
2018-12-31T01:02:12.767Z,7.40
2018-12-31T01:03:12.761Z,7.30
2018-12-31T01:04:12.753Z,7.90
2018-12-31T01:05:12.747Z,7.50
2018-12-31T01:06:12.743Z,7.60
2018-12-31T01:07:12.737Z,6.70
2018-12-31T01:08:12.808Z,7.20
2018-12-31T01:09:12.727Z,7.30
2018-12-31T01:10:12.720Z,7.80
2018-12-31T01:11:12.714Z,7.40
2018-12-31T01:12:12.712Z,7.70
2018-12-31T01:13:12.709Z,8.00
2018-12-31T01:14:12.702Z,7.90
2018-12-31T01:15:12.694Z,7.60
2018-12-31T01:16:12.690Z,8.30
2018-12-31T01:17:12.683Z,7.30
2018-12-31T01:18:12.682Z,8.10
2018-12-31T01:19:12.674Z,8.10
2018-12-31T01:20:12.668Z,8.00
2018-12-31T01:21:12.664Z,8.30
2018-12-31T01:22:12.658Z,8.30
2018-12-31T01:23:12.652Z,8.20
2018-12-31T01:24:12.647Z,7.70
2018-12-31T01:25:12.642Z,8.50
2018-12-31T01:26:12.636Z,8.40
2018-12-31T01:27:12.631Z,8.20
2018-12-31T01:28:12.626Z,8.90
2018-12-31T01:29:12.621Z,8.30
2018-12-31T01:30:12.615Z,8.40
2018-12-31T01:31:12.610Z,9.20
2018-12-31T01:32:12.605Z,8.50
2018-12-31T01:33:12.601Z,9.10
2018-12-31T01:34:12.594Z,9.30
2018-12-31T01:35:12.589Z,8.70
2018-12-31T01:36:12.584Z,8.10
2018-12-31T01:37:12.579Z,8.60
2018-12-31T01:38:12.574Z,9.30
2018-12-31T01:39:12.572Z,8.80
2018-12-31T01:40:12.563Z,8.80
2018-12-31T01:41:12.559Z,8.30
2018-12-31T01:42:12.553Z,8.30
2018-12-31T01:43:12.549Z,9.60
2018-12-31T01:44:12.546Z,9.20
2018-12-31T01:45:12.538Z,7.90
2018-12-31T01:46:12.531Z,9.40
2018-12-31T01:47:12.531Z,9.00
2018-12-31T01:48:12.525Z,9.70
2018-12-31T01:49:12.517Z,9.00
2018-12-31T01:50:12.511Z,10.00
2018-12-31T01:51:12.511Z,10.60
2018-12-31T01:52:12.501Z,8.90
2018-12-31T01:53:12.496Z,8.90
2018-12-31T01:54:12.490Z,10.90
2018-12-31T01:55:12.486Z,9.50
2018-12-31T01:56:12.480Z,10.30
2018-12-31T01:57:12.476Z,9.70
2018-12-31T01:58:12.469Z,9.40
2018-12-31T01:59:12.465Z,10.20
2018-12-31T02:00:12.460Z,10.30
2018-12-31T02:01:12.457Z,10.70
2018-12-31T02:02:12.449Z,9.70
2018-12-31T02:03:12.445Z,10.60
2018-12-31T02:04:12.438Z,10.20
2018-12-31T02:05:12.438Z,11.10
2018-12-31T02:06:12.428Z,11.00
2018-12-31T02:07:12.424Z,10.30
2018-12-31T02:08:12.418Z,10.70
2018-12-31T02:09:12.415Z,10.90
2018-12-31T02:10:12.408Z,12.50
2018-12-31T02:11:12.401Z,10.00
2018-12-31T02:12:12.396Z,11.00
2018-12-31T02:13:12.391Z,10.90
2018-12-31T02:14:12.385Z,11.60
2018-12-31T02:15:12.382Z,11.00
2018-12-31T02:16:12.378Z,10.00
2018-12-31T02:17:12.371Z,10.60
2018-12-31T02:18:12.365Z,10.20
2018-12-31T02:19:12.360Z,9.70
2018-12-31T02:20:12.356Z,10.00
2018-12-31T02:21:12.357Z,10.40
2018-12-31T02:22:12.344Z,9.90
2018-12-31T02:23:12.339Z,9.80
2018-12-31T02:24:12.334Z,8.90
2018-12-31T02:25:12.329Z,9.90
2018-12-31T02:26:13.648Z,9.50
2018-12-31T02:27:12.319Z,9.50
2018-12-31T02:28:12.314Z,10.10
2018-12-31T02:29:12.311Z,9.40
2018-12-31T02:30:12.304Z,7.70
2018-12-31T02:31:12.298Z,7.80
2018-12-31T02:32:12.292Z,8.90
2018-12-31T02:33:12.288Z,7.70
2018-12-31T02:34:12.282Z,7.60
2018-12-31T02:35:12.277Z,7.90
2018-12-31T02:36:12.271Z,8.80
2018-12-31T02:37:12.267Z,7.90
2018-12-31T02:38:12.261Z,8.30
2018-12-31T02:39:12.257Z,8.30
2018-12-31T02:40:12.250Z,9.20
2018-12-31T02:41:12.245Z,9.30
2018-12-31T02:42:12.245Z,6.80
2018-12-31T02:43:12.235Z,8.40
2018-12-31T02:44:12.229Z,9.40
2018-12-31T02:45:12.226Z,10.20
2018-12-31T02:46:12.218Z,9.60
2018-12-31T02:47:12.218Z,10.20
2018-12-31T02:48:12.209Z,10.00
2018-12-31T02:49:12.205Z,10.40
2018-12-31T02:50:12.202Z,10.30
2018-12-31T02:51:12.202Z,10.10
2018-12-31T02:52:12.189Z,10.40
2018-12-31T02:53:12.183Z,10.00
2018-12-31T02:54:12.177Z,10.50
2018-12-31T02:55:12.172Z,10.20
2018-12-31T02:56:12.169Z,10.20
2018-12-31T02:57:12.163Z,10.40
2018-12-31T02:58:12.156Z,10.00
2018-12-31T02:59:12.151Z,11.50
2018-12-31T03:00:12.149Z,11.10
2018-12-31T03:01:12.143Z,11.40
2018-12-31T03:02:12.135Z,10.90
2018-12-31T03:03:12.133Z,10.50
2018-12-31T03:04:12.126Z,10.80
2018-12-31T03:05:12.122Z,10.80
2018-12-31T03:06:12.124Z,10.90
2018-12-31T03:07:12.111Z,10.90
2018-12-31T03:08:12.105Z,11.80
2018-12-31T03:09:12.099Z,11.00
2018-12-31T03:10:12.094Z,11.40
2018-12-31T03:11:12.089Z,11.80
2018-12-31T03:12:12.085Z,11.60
2018-12-31T03:13:12.084Z,11.40
2018-12-31T03:14:12.074Z,12.00
2018-12-31T03:15:12.170Z,11.70
2018-12-31T03:16:12.063Z,13.60
2018-12-31T03:17:12.059Z,11.30
2018-12-31T03:18:12.051Z,12.70
2018-12-31T03:19:12.048Z,10.90
2018-12-31T03:20:12.044Z,11.10
2018-12-31T03:21:12.038Z,13.00
2018-12-31T03:22:12.032Z,12.60
2018-12-31T03:23:12.028Z,11.80
2018-12-31T03:24:12.024Z,12.70
2018-12-31T03:25:12.019Z,11.70
2018-12-31T03:26:12.017Z,12.90
2018-12-31T03:27:12.007Z,12.00
2018-12-31T03:28:12.002Z,12.20
2018-12-31T03:29:11.996Z,12.70
2018-12-31T03:30:11.992Z,12.40
2018-12-31T03:31:11.994Z,11.60
2018-12-31T03:32:11.983Z,11.70
2018-12-31T03:33:11.977Z,11.20
2018-12-31T03:34:11.970Z,11.80
2018-12-31T03:35:11.964Z,12.30
2018-12-31T03:36:11.968Z,11.50
2018-12-31T03:37:11.956Z,11.40
2018-12-31T03:38:11.948Z,11.40
2018-12-31T03:39:11.951Z,11.00
2018-12-31T03:40:11.939Z,11.40
2018-12-31T03:41:11.938Z,11.70
2018-12-31T03:42:11.928Z,13.30
2018-12-31T03:43:11.925Z,12.50
2018-12-31T03:44:11.921Z,12.00
2018-12-31T03:45:11.913Z,10.10
2018-12-31T03:46:11.908Z,11.50
2018-12-31T03:47:12.373Z,11.20
2018-12-31T03:48:11.897Z,11.20
2018-12-31T03:49:11.894Z,11.60
2018-12-31T03:50:11.888Z,10.40
2018-12-31T03:51:11.933Z,11.80
2018-12-31T03:52:11.876Z,11.00
2018-12-31T03:53:11.873Z,11.40
2018-12-31T03:54:11.867Z,11.20
2018-12-31T03:55:11.861Z,11.10
2018-12-31T03:56:11.856Z,10.70
2018-12-31T03:57:11.852Z,10.80
2018-12-31T03:58:11.847Z,11.30
2018-12-31T03:59:11.842Z,10.60
2018-12-31T04:00:11.835Z,12.00
2018-12-31T04:01:11.833Z,10.60
2018-12-31T04:02:11.827Z,11.10
2018-12-31T04:03:11.820Z,11.50
2018-12-31T04:04:11.817Z,11.60
2018-12-31T04:05:11.814Z,11.50
2018-12-31T04:06:11.805Z,10.90
2018-12-31T04:07:11.802Z,11.60
2018-12-31T04:08:11.799Z,12.00
2018-12-31T04:09:11.791Z,11.50
2018-12-31T04:10:11.785Z,11.20
2018-12-31T04:11:11.779Z,11.40
2018-12-31T04:12:11.775Z,12.10
2018-12-31T04:13:11.770Z,11.40
2018-12-31T04:14:11.764Z,11.50
2018-12-31T04:15:11.761Z,11.80
2018-12-31T04:16:11.755Z,12.00
2018-12-31T04:17:11.751Z,11.00
2018-12-31T04:18:11.746Z,10.40
2018-12-31T04:19:11.740Z,12.70
2018-12-31T04:20:11.738Z,12.70
2018-12-31T04:21:11.729Z,13.10
2018-12-31T04:22:11.724Z,12.00
2018-12-31T04:23:11.722Z,12.40
2018-12-31T04:24:11.715Z,11.90
2018-12-31T04:25:11.711Z,12.80
2018-12-31T04:26:11.706Z,12.70
2018-12-31T04:27:11.700Z,12.30
2018-12-31T04:28:11.694Z,12.10
2018-12-31T04:29:11.694Z,12.30
2018-12-31T04:30:11.685Z,11.60
2018-12-31T04:31:11.679Z,13.40
2018-12-31T04:32:11.675Z,12.30
2018-12-31T04:33:11.672Z,13.30
2018-12-31T04:34:11.665Z,12.50
2018-12-31T04:35:11.659Z,13.20
2018-12-31T04:36:11.657Z,12.40
2018-12-31T04:37:11.651Z,13.40
2018-12-31T04:38:11.644Z,12.90
2018-12-31T04:39:11.639Z,13.50
2018-12-31T04:40:11.647Z,13.80
2018-12-31T04:41:11.630Z,12.70
2018-12-31T04:42:11.625Z,13.90
2018-12-31T04:43:11.619Z,13.20
2018-12-31T04:44:11.616Z,13.30
2018-12-31T04:45:11.609Z,13.60
2018-12-31T04:46:11.604Z,12.40
2018-12-31T04:47:11.599Z,13.80
2018-12-31T04:48:11.597Z,13.90
2018-12-31T04:49:11.649Z,14.60
2018-12-31T04:50:11.584Z,13.70
2018-12-31T04:51:11.578Z,12.90
2018-12-31T04:52:11.576Z,14.60
2018-12-31T04:53:11.568Z,12.20
2018-12-31T04:54:11.563Z,13.00
2018-12-31T04:55:11.559Z,12.90
2018-12-31T04:56:11.554Z,13.50
2018-12-31T04:57:11.547Z,13.00
2018-12-31T04:58:11.549Z,13.30
2018-12-31T04:59:11.539Z,14.00
2018-12-31T05:00:11.536Z,14.00
2018-12-31T05:01:11.528Z,12.30
2018-12-31T05:02:11.522Z,14.10
2018-12-31T05:03:11.617Z,13.50
2018-12-31T05:04:11.513Z,12.50
2018-12-31T05:05:11.509Z,12.80
2018-12-31T05:06:11.504Z,14.50
2018-12-31T05:07:11.496Z,14.00
2018-12-31T05:08:11.493Z,14.20
2018-12-31T05:09:11.489Z,13.80
2018-12-31T05:10:11.482Z,14.60
2018-12-31T05:11:11.477Z,13.70
2018-12-31T05:12:11.472Z,14.80
2018-12-31T05:13:11.469Z,13.70
2018-12-31T05:14:11.460Z,14.30
2018-12-31T05:15:11.457Z,14.90
2018-12-31T05:16:11.453Z,14.00
2018-12-31T05:17:11.446Z,14.70
2018-12-31T05:18:11.444Z,15.00
2018-12-31T05:19:11.436Z,14.40
2018-12-31T05:20:11.431Z,14.20
2018-12-31T05:21:11.429Z,16.00
2018-12-31T05:22:11.421Z,15.00
2018-12-31T05:23:11.417Z,14.70
2018-12-31T05:24:11.411Z,13.10
2018-12-31T05:25:11.408Z,15.30
2018-12-31T05:26:11.407Z,14.20
2018-12-31T05:27:11.397Z,14.10
2018-12-31T05:28:11.391Z,13.20
2018-12-31T05:29:11.387Z,13.30
2018-12-31T05:30:11.381Z,13.40
2018-12-31T05:31:11.375Z,13.80
2018-12-31T05:32:11.370Z,14.10
2018-12-31T05:33:11.368Z,13.90
2018-12-31T05:34:11.361Z,14.30
2018-12-31T05:35:11.359Z,14.70
2018-12-31T05:36:11.350Z,12.20
2018-12-31T05:37:11.345Z,13.40
2018-12-31T05:38:11.341Z,13.40
2018-12-31T05:39:11.336Z,13.40
2018-12-31T05:40:11.333Z,14.10
2018-12-31T05:41:11.325Z,14.40
2018-12-31T05:42:11.320Z,12.50
2018-12-31T05:43:11.315Z,14.00
2018-12-31T05:44:11.310Z,13.50
2018-12-31T05:45:11.307Z,13.40
2018-12-31T05:46:11.301Z,13.10
2018-12-31T05:47:11.296Z,13.60
2018-12-31T05:48:11.291Z,13.50
2018-12-31T05:49:11.286Z,14.30
2018-12-31T05:50:11.282Z,13.50
2018-12-31T05:51:11.274Z,12.70
2018-12-31T05:52:11.270Z,10.60
2018-12-31T05:53:11.266Z,10.40
2018-12-31T05:54:11.260Z,11.40
2018-12-31T05:55:11.255Z,10.60
2018-12-31T05:56:11.250Z,11.00
2018-12-31T05:57:11.245Z,9.90
2018-12-31T05:58:11.240Z,10.40
2018-12-31T05:59:11.235Z,10.70
2018-12-31T06:00:11.230Z,10.40
2018-12-31T06:01:11.225Z,10.90
2018-12-31T06:02:11.223Z,11.20
2018-12-31T06:03:11.214Z,12.10
2018-12-31T06:04:11.211Z,12.20
2018-12-31T06:05:11.210Z,12.40
2018-12-31T06:06:11.199Z,11.90
2018-12-31T06:07:11.198Z,11.20
2018-12-31T06:08:11.190Z,11.30
2018-12-31T06:09:11.184Z,11.30
2018-12-31T06:10:11.179Z,12.30
2018-12-31T06:11:11.175Z,10.80
2018-12-31T06:12:11.170Z,11.00
2018-12-31T06:13:11.165Z,11.90
2018-12-31T06:14:11.160Z,9.90
2018-12-31T06:15:11.154Z,11.30
2018-12-31T06:16:11.150Z,10.40
2018-12-31T06:17:11.145Z,10.30
2018-12-31T06:18:11.139Z,10.10
2018-12-31T06:19:11.135Z,10.00
2018-12-31T06:20:11.130Z,9.20
2018-12-31T06:21:11.125Z,9.80
2018-12-31T06:22:11.118Z,9.80
2018-12-31T06:23:11.114Z,10.70
2018-12-31T06:24:11.110Z,10.10
2018-12-31T06:25:11.107Z,9.90
2018-12-31T06:26:11.098Z,10.30
2018-12-31T06:27:11.095Z,10.10
2018-12-31T06:28:11.088Z,9.40
2018-12-31T06:29:11.083Z,9.70
2018-12-31T06:30:11.078Z,10.20
2018-12-31T06:31:11.073Z,9.50
2018-12-31T06:32:11.069Z,9.70
2018-12-31T06:33:11.063Z,8.90
2018-12-31T06:34:11.060Z,8.90
2018-12-31T06:35:11.053Z,9.30
2018-12-31T06:36:11.049Z,9.40
2018-12-31T06:37:11.044Z,8.90
2018-12-31T06:38:11.037Z,9.40
2018-12-31T06:39:11.033Z,8.80
2018-12-31T06:40:11.028Z,9.20
2018-12-31T06:41:11.023Z,10.20
2018-12-31T06:42:11.018Z,10.30
2018-12-31T06:43:11.014Z,9.20
2018-12-31T06:44:11.009Z,9.50
2018-12-31T06:45:11.005Z,10.20
2018-12-31T06:46:11.074Z,9.60
2018-12-31T06:47:10.993Z,10.70
2018-12-31T06:48:10.988Z,9.20
2018-12-31T06:49:10.983Z,9.40
2018-12-31T06:50:10.975Z,9.30
2018-12-31T06:51:10.972Z,10.50
2018-12-31T06:52:10.969Z,8.90
2018-12-31T06:53:10.994Z,8.90
2018-12-31T06:54:10.958Z,10.30
2018-12-31T06:55:10.951Z,9.60
2018-12-31T06:56:10.951Z,9.00
2018-12-31T06:57:10.941Z,8.50
2018-12-31T06:58:10.936Z,8.90
2018-12-31T06:59:10.931Z,9.10
2018-12-31T07:00:10.926Z,9.30
2018-12-31T07:01:10.921Z,8.80
2018-12-31T07:02:10.915Z,8.90
2018-12-31T07:03:10.916Z,9.10
2018-12-31T07:04:10.908Z,8.60
2018-12-31T07:05:10.902Z,8.80
2018-12-31T07:06:10.895Z,8.40
2018-12-31T07:07:10.889Z,8.60
2018-12-31T07:08:10.886Z,9.20
2018-12-31T07:09:10.885Z,9.00
2018-12-31T07:10:10.873Z,8.90
2018-12-31T07:11:10.869Z,8.80
2018-12-31T07:12:10.864Z,9.10
2018-12-31T07:13:10.862Z,8.30
2018-12-31T07:14:10.856Z,8.90
2018-12-31T07:15:10.850Z,8.50
2018-12-31T07:16:10.845Z,9.00
2018-12-31T07:17:10.840Z,9.20
2018-12-31T07:18:10.834Z,8.90
2018-12-31T07:19:10.828Z,8.80
2018-12-31T07:20:10.824Z,8.70
2018-12-31T07:21:10.818Z,9.70
2018-12-31T07:22:10.915Z,10.10
2018-12-31T07:23:10.808Z,9.70
2018-12-31T07:24:10.802Z,8.70
2018-12-31T07:25:10.803Z,9.20
2018-12-31T07:26:10.791Z,9.60
2018-12-31T07:27:10.789Z,9.60
2018-12-31T07:28:10.785Z,10.10
2018-12-31T07:29:10.778Z,8.00
2018-12-31T07:30:10.771Z,8.00
2018-12-31T07:31:10.766Z,8.00
2018-12-31T07:32:10.762Z,9.10
2018-12-31T07:33:10.757Z,8.80
2018-12-31T07:34:10.751Z,8.30
2018-12-31T07:35:11.551Z,9.00
2018-12-31T07:36:10.742Z,8.50
2018-12-31T07:37:10.737Z,8.20
2018-12-31T07:38:10.730Z,8.20
2018-12-31T07:39:10.725Z,7.60
2018-12-31T07:40:10.720Z,7.40
2018-12-31T07:41:10.716Z,7.50
2018-12-31T07:42:10.710Z,7.60
2018-12-31T07:43:10.705Z,7.60
2018-12-31T07:44:10.703Z,7.70
2018-12-31T07:45:10.696Z,7.80
2018-12-31T07:46:10.689Z,7.10
2018-12-31T07:47:10.684Z,7.30
2018-12-31T07:48:10.680Z,7.70
2018-12-31T07:49:10.674Z,8.10
2018-12-31T07:50:10.672Z,7.20
2018-12-31T07:51:10.663Z,8.20
2018-12-31T07:52:10.658Z,7.60
2018-12-31T07:53:10.653Z,8.20
2018-12-31T07:54:10.729Z,7.70
2018-12-31T07:55:10.642Z,7.10
2018-12-31T07:56:10.639Z,7.50
2018-12-31T07:57:10.635Z,7.50
2018-12-31T07:58:10.628Z,7.50
2018-12-31T07:59:10.622Z,8.00
2018-12-31T08:00:10.618Z,8.20
2018-12-31T08:01:10.613Z,8.90
2018-12-31T08:02:10.611Z,8.30
2018-12-31T08:03:10.602Z,7.40
2018-12-31T08:04:10.596Z,8.00
2018-12-31T08:05:10.593Z,6.80
2018-12-31T08:06:10.587Z,7.80
2018-12-31T08:07:10.586Z,7.70
2018-12-31T08:08:10.577Z,7.40
2018-12-31T08:09:10.574Z,8.30
2018-12-31T08:10:10.566Z,7.90
2018-12-31T08:11:10.561Z,7.50
2018-12-31T08:12:10.557Z,7.40
2018-12-31T08:13:10.551Z,8.30
2018-12-31T08:14:10.546Z,7.50
2018-12-31T08:15:10.541Z,7.20
2018-12-31T08:16:10.536Z,7.00
2018-12-31T08:17:10.531Z,6.90
2018-12-31T08:18:10.526Z,7.40
2018-12-31T08:19:10.522Z,8.10
2018-12-31T08:20:10.515Z,7.10
2018-12-31T08:21:10.513Z,7.80
2018-12-31T08:22:10.503Z,7.40
2018-12-31T08:23:10.499Z,7.30
2018-12-31T08:24:10.495Z,7.10
2018-12-31T08:25:10.490Z,7.50
2018-12-31T08:26:10.483Z,7.30
2018-12-31T08:27:10.478Z,6.70
2018-12-31T08:28:10.475Z,7.80
2018-12-31T08:29:10.469Z,6.80
2018-12-31T08:30:10.464Z,6.80
2018-12-31T08:31:10.458Z,6.90
2018-12-31T08:32:10.454Z,7.50
2018-12-31T08:33:10.448Z,6.90
2018-12-31T08:34:10.443Z,6.70
2018-12-31T08:35:10.438Z,6.40
2018-12-31T08:36:10.434Z,6.50
2018-12-31T08:37:10.430Z,6.80
2018-12-31T08:38:10.423Z,6.60
2018-12-31T08:39:10.418Z,7.50
2018-12-31T08:40:10.414Z,6.40
2018-12-31T08:41:10.409Z,6.80
2018-12-31T08:42:10.404Z,6.50
2018-12-31T08:43:10.399Z,6.50
2018-12-31T08:44:10.395Z,5.20
2018-12-31T08:45:10.388Z,5.90
2018-12-31T08:46:10.384Z,6.60
2018-12-31T08:47:10.380Z,8.00
2018-12-31T08:48:10.374Z,6.90
2018-12-31T08:49:10.372Z,7.50
2018-12-31T08:50:10.363Z,7.20
2018-12-31T08:51:10.357Z,6.70
2018-12-31T08:52:10.354Z,6.50
2018-12-31T08:53:10.354Z,6.60
2018-12-31T08:54:10.341Z,5.70
2018-12-31T08:55:10.337Z,6.70
2018-12-31T08:56:10.332Z,6.60
2018-12-31T08:57:10.328Z,6.30
2018-12-31T08:58:10.322Z,5.80
2018-12-31T08:59:10.320Z,6.90
2018-12-31T09:00:10.312Z,6.50
2018-12-31T09:01:10.307Z,6.00
2018-12-31T09:02:10.303Z,6.30
2018-12-31T09:03:10.296Z,6.10
2018-12-31T09:04:10.292Z,6.40
2018-12-31T09:05:10.287Z,6.90
2018-12-31T09:06:10.281Z,6.50
2018-12-31T09:07:10.277Z,7.90
2018-12-31T09:08:10.273Z,11.90
2018-12-31T09:09:10.271Z,7.90
2018-12-31T09:10:10.261Z,5.70
2018-12-31T09:11:10.256Z,6.10
2018-12-31T09:12:10.254Z,6.50
2018-12-31T09:13:10.248Z,5.50
2018-12-31T09:14:10.242Z,5.80
2018-12-31T09:15:10.236Z,5.30
2018-12-31T09:16:10.235Z,5.90
2018-12-31T09:17:10.229Z,5.40
2018-12-31T09:18:10.226Z,5.70
2018-12-31T09:19:10.219Z,5.80
2018-12-31T09:20:10.213Z,5.40
2018-12-31T09:21:10.208Z,6.10
2018-12-31T09:22:10.203Z,5.50
2018-12-31T09:23:10.198Z,5.90
2018-12-31T09:24:10.194Z,5.90
2018-12-31T09:25:10.188Z,5.80
2018-12-31T09:26:10.183Z,6.70
2018-12-31T09:27:10.178Z,6.20
2018-12-31T09:28:10.175Z,5.30
2018-12-31T09:29:10.171Z,5.80
2018-12-31T09:30:10.164Z,5.10
2018-12-31T09:31:10.159Z,6.20
2018-12-31T09:32:10.154Z,7.30
2018-12-31T09:33:10.151Z,5.60
2018-12-31T09:34:10.146Z,6.30
2018-12-31T09:35:10.143Z,6.10
2018-12-31T09:36:10.135Z,6.50
2018-12-31T09:37:10.131Z,7.70
2018-12-31T09:38:10.124Z,5.80
2018-12-31T09:39:10.120Z,7.00
2018-12-31T09:40:10.116Z,6.60
2018-12-31T09:41:10.111Z,5.70
2018-12-31T09:42:10.107Z,5.60
2018-12-31T09:43:10.103Z,5.70
2018-12-31T09:44:10.097Z,6.10
2018-12-31T09:45:10.093Z,6.40
2018-12-31T09:46:10.088Z,7.70
2018-12-31T09:47:10.082Z,8.60
2018-12-31T09:48:10.079Z,11.60
2018-12-31T09:49:10.075Z,10.40
2018-12-31T09:50:10.067Z,8.50
2018-12-31T09:51:10.063Z,8.50
2018-12-31T09:52:10.059Z,8.40
2018-12-31T09:53:10.055Z,11.60
2018-12-31T09:54:10.050Z,13.30
2018-12-31T09:55:10.046Z,9.10
2018-12-31T09:56:10.039Z,7.10
2018-12-31T09:57:10.036Z,9.10
2018-12-31T09:58:10.030Z,7.40
2018-12-31T09:59:10.024Z,7.40
2018-12-31T10:00:10.023Z,7.10
2018-12-31T10:01:10.018Z,6.80
2018-12-31T10:02:10.012Z,6.10
2018-12-31T10:03:10.005Z,6.70
2018-12-31T10:04:10.001Z,8.90
2018-12-31T10:05:09.998Z,11.70
2018-12-31T10:06:09.991Z,8.40
2018-12-31T10:07:09.988Z,8.10
2018-12-31T10:08:09.985Z,7.30
2018-12-31T10:09:09.979Z,8.60
2018-12-31T10:10:10.015Z,7.40
2018-12-31T10:11:09.969Z,7.30
2018-12-31T10:12:09.964Z,8.30
2018-12-31T10:13:09.963Z,7.20
2018-12-31T10:14:09.954Z,9.90
2018-12-31T10:15:09.951Z,8.40
2018-12-31T10:16:09.945Z,10.80
2018-12-31T10:17:09.944Z,10.10
2018-12-31T10:18:09.937Z,8.90
2018-12-31T10:19:09.930Z,9.80
2018-12-31T10:20:09.925Z,10.80
2018-12-31T10:21:09.925Z,13.80
2018-12-31T10:22:09.916Z,11.30
2018-12-31T10:23:09.915Z,7.20
2018-12-31T10:24:09.911Z,6.20
2018-12-31T10:25:09.904Z,7.80
2018-12-31T10:26:09.897Z,11.00
2018-12-31T10:27:09.894Z,10.30
2018-12-31T10:28:09.895Z,9.20
2018-12-31T10:29:09.884Z,10.20
2018-12-31T10:30:09.878Z,6.70
2018-12-31T10:31:09.875Z,8.50
2018-12-31T10:32:09.870Z,8.10
2018-12-31T10:33:09.867Z,5.90
2018-12-31T10:34:09.860Z,7.20
2018-12-31T10:35:09.856Z,6.30
2018-12-31T10:36:09.851Z,6.50
2018-12-31T10:37:09.850Z,6.80
2018-12-31T10:38:09.842Z,8.80
2018-12-31T10:39:09.838Z,7.80
2018-12-31T10:40:09.833Z,6.20
2018-12-31T10:41:09.829Z,5.80
2018-12-31T10:42:09.824Z,5.10
2018-12-31T10:43:09.820Z,6.10
2018-12-31T10:44:09.814Z,8.50
2018-12-31T10:45:09.811Z,8.30
2018-12-31T10:46:09.805Z,7.40
2018-12-31T10:47:09.802Z,8.10
2018-12-31T10:48:09.798Z,7.20
2018-12-31T10:49:09.792Z,8.40
2018-12-31T10:50:09.787Z,8.90
2018-12-31T10:51:09.784Z,6.40
2018-12-31T10:52:09.784Z,7.50
2018-12-31T10:53:09.775Z,6.80
2018-12-31T10:54:09.770Z,9.20
2018-12-31T10:55:09.767Z,6.80
2018-12-31T10:56:09.762Z,7.30
2018-12-31T10:57:09.758Z,6.40
2018-12-31T10:58:09.752Z,5.80
2018-12-31T10:59:09.748Z,9.30
2018-12-31T11:00:09.744Z,10.80
2018-12-31T11:01:09.739Z,6.30
2018-12-31T11:02:09.735Z,6.50
2018-12-31T11:03:09.729Z,7.30
2018-12-31T11:04:09.729Z,6.80
2018-12-31T11:05:09.722Z,7.00
2018-12-31T11:06:09.720Z,6.50
2018-12-31T11:07:09.711Z,7.40
2018-12-31T11:08:10.591Z,7.50
2018-12-31T11:09:09.702Z,7.70
2018-12-31T11:10:09.700Z,7.30
2018-12-31T11:11:09.694Z,7.60
2018-12-31T11:12:09.689Z,7.00
2018-12-31T11:13:09.685Z,5.80
2018-12-31T11:14:09.683Z,7.50
2018-12-31T11:15:09.676Z,6.90
2018-12-31T11:16:09.673Z,6.80
2018-12-31T11:17:09.666Z,7.30
2018-12-31T11:18:09.662Z,6.50
2018-12-31T11:19:09.659Z,6.10
2018-12-31T11:20:09.655Z,7.30
2018-12-31T11:21:09.652Z,7.10
2018-12-31T11:22:09.644Z,6.90
2018-12-31T11:23:09.641Z,6.90
2018-12-31T11:24:09.636Z,7.10
2018-12-31T11:25:09.633Z,7.00
2018-12-31T11:26:09.629Z,6.90
2018-12-31T11:27:09.624Z,7.00
2018-12-31T11:28:09.620Z,7.50
2018-12-31T11:29:09.613Z,6.30
2018-12-31T11:30:09.610Z,6.80
2018-12-31T11:31:09.604Z,6.10
2018-12-31T11:32:09.601Z,7.60
2018-12-31T11:33:09.597Z,7.30
2018-12-31T11:34:09.590Z,7.80
2018-12-31T11:35:09.586Z,5.90
2018-12-31T11:36:09.584Z,6.50
2018-12-31T11:37:09.577Z,6.80
2018-12-31T11:38:09.573Z,6.90
2018-12-31T11:39:09.570Z,7.20
2018-12-31T11:40:09.566Z,6.60
2018-12-31T11:41:09.560Z,6.30
2018-12-31T11:42:09.554Z,6.60
2018-12-31T11:43:09.550Z,6.90
2018-12-31T11:44:09.546Z,7.10
2018-12-31T11:45:09.542Z,6.00
2018-12-31T11:46:09.537Z,6.40
2018-12-31T11:47:09.532Z,6.80
2018-12-31T11:48:09.528Z,6.60
2018-12-31T11:49:09.525Z,6.40
2018-12-31T11:50:09.518Z,7.00
2018-12-31T11:51:09.515Z,6.60
2018-12-31T11:52:09.511Z,6.20
2018-12-31T11:53:09.505Z,6.40
2018-12-31T11:54:09.500Z,6.80
2018-12-31T11:55:09.503Z,5.80
2018-12-31T11:56:09.491Z,6.40
2018-12-31T11:57:09.488Z,6.20
2018-12-31T11:58:09.486Z,6.20
2018-12-31T11:59:09.479Z,6.30
2018-12-31T12:00:09.473Z,7.10
2018-12-31T12:01:09.470Z,6.40
2018-12-31T12:02:09.465Z,6.50
2018-12-31T12:03:09.460Z,8.60
2018-12-31T12:04:09.457Z,7.50
2018-12-31T12:05:09.452Z,7.10
2018-12-31T12:06:09.446Z,7.30
2018-12-31T12:07:09.444Z,7.00
2018-12-31T12:08:09.440Z,6.40
2018-12-31T12:09:09.438Z,7.50
2018-12-31T12:10:09.430Z,7.90
2018-12-31T12:11:09.424Z,8.40
2018-12-31T12:12:09.420Z,7.40
2018-12-31T12:13:09.418Z,7.20
2018-12-31T12:14:09.410Z,6.70
2018-12-31T12:15:09.407Z,7.40
2018-12-31T12:16:09.402Z,7.30
2018-12-31T12:17:09.399Z,8.10
2018-12-31T12:18:09.395Z,7.70
2018-12-31T12:19:09.424Z,7.60
2018-12-31T12:20:09.385Z,6.60
2018-12-31T12:21:09.379Z,6.40
2018-12-31T12:22:09.374Z,7.00
2018-12-31T12:23:09.370Z,7.60
2018-12-31T12:24:09.368Z,6.80
2018-12-31T12:25:09.363Z,7.30
2018-12-31T12:26:09.357Z,7.40
2018-12-31T12:27:09.352Z,7.60
2018-12-31T12:28:09.349Z,6.10
2018-12-31T12:29:09.343Z,6.70
2018-12-31T12:30:09.338Z,6.60
2018-12-31T12:31:09.584Z,7.20
2018-12-31T12:32:09.331Z,5.80
2018-12-31T12:33:09.326Z,7.40
2018-12-31T12:34:09.321Z,7.90
2018-12-31T12:35:09.318Z,7.70
2018-12-31T12:36:09.313Z,6.20
2018-12-31T12:37:09.308Z,7.70
2018-12-31T12:38:09.306Z,6.60
2018-12-31T12:39:09.301Z,6.30
2018-12-31T12:40:09.296Z,5.50
2018-12-31T12:41:09.292Z,7.30
2018-12-31T12:42:09.286Z,6.50
2018-12-31T12:43:09.280Z,6.70
2018-12-31T12:44:09.276Z,7.10
2018-12-31T12:45:09.273Z,6.00
2018-12-31T12:46:09.267Z,5.80
2018-12-31T12:47:09.265Z,6.30
2018-12-31T12:48:09.258Z,7.30
2018-12-31T12:49:09.255Z,6.30
2018-12-31T12:50:09.249Z,7.30
2018-12-31T12:51:09.245Z,6.70
2018-12-31T12:52:09.241Z,6.90
2018-12-31T12:53:09.237Z,6.60
2018-12-31T12:54:09.231Z,7.00
2018-12-31T12:55:09.228Z,6.60
2018-12-31T12:56:09.223Z,6.50
2018-12-31T12:57:09.220Z,5.50
2018-12-31T12:58:09.217Z,5.40
2018-12-31T12:59:09.209Z,6.10
2018-12-31T13:00:09.204Z,5.70
2018-12-31T13:01:09.201Z,5.70
2018-12-31T13:02:09.196Z,5.70
2018-12-31T13:03:09.192Z,5.40
2018-12-31T13:04:09.186Z,5.20
2018-12-31T13:05:09.184Z,6.00
2018-12-31T13:06:09.180Z,7.00
2018-12-31T13:07:09.173Z,5.30
2018-12-31T13:08:09.199Z,6.00
2018-12-31T13:09:09.166Z,5.80